Portsmouth, Virginia
Current Conditions -  °F | °C
As of 1:59 AM on Thursday 27 Nov 2014 (Local Time) from KNGU Reporting Station
Scattered Clouds Scattered Clouds  
Wind Chill: 42°   Ceiling: Unl
Heat Index: 42°   Visibility: 10mi
Dew Point: 36°   Wind: 3mph
Humidity: 79%   Direction: 220°SW
Pressure: 30.07"   Gusts: NA
Location:  36.83°N, 76.3°W
Report Text: KNGU 270659Z AUTO 22003KT 10SM SCT060 06/02 A3007 RMK AO2 SLP181 T00560022
Loading
Personal Weather Stations






























Interactive Weather Map New forecast layout! Learn more

10-Day Weather Forecast

Advertisements
Track Severe Weather on mobile